Time;durP1;ratioP1;P1;durP2;ratioP2;P2;SDS_P1;SDS_P2;PMS_P1;PMS_P2;Temp;Humidity;BMP_temperature;BMP_pressure;BME280_temperature;BME280_humidity;BME280_pressure;Samples;Min_cycle;Max_cycle;Signal;HPM_P1;HPM_P2
2022/04/02 04:02:37;;;;;;;2.58;1.77;;;2.10;99.90;;;;;;4939903;23;20401;-66
2022/04/02 04:05:06;;;;;;;1.88;1.77;;;2.10;99.90;;;;;;4904878;29;20314;-66
2022/04/02 04:07:33;;;;;;;2.15;2.05;;;2.10;99.90;;;;;;4910417;29;20258;-69
2022/04/02 04:09:59;;;;;;;1.85;1.75;;;2.10;99.90;;;;;;4916721;29;20226;-68
2022/04/02 04:12:26;;;;;;;2.58;2.42;;;2.20;99.90;;;;;;4915433;29;20234;-66
2022/04/02 04:14:53;;;;;;;3.28;1.92;;;2.20;99.90;;;;;;4904424;29;20207;-68
2022/04/02 04:17:20;;;;;;;1.98;1.88;;;2.20;99.90;;;;;;4883343;29;20250;-68
2022/04/02 04:19:48;;;;;;;1.90;1.90;;;2.20;99.90;;;;;;4898078;29;20217;-69
2022/04/02 04:22:14;;;;;;;3.50;1.95;;;2.20;99.90;;;;;;4897219;29;20291;-69
2022/04/02 04:24:41;;;;;;;2.28;1.75;;;2.20;99.90;;;;;;4898618;29;20204;-69
2022/04/02 04:27:08;;;;;;;1.83;1.70;;;2.20;99.90;;;;;;4892736;29;20287;-69
2022/04/02 04:29:35;;;;;;;1.92;1.80;;;2.20;99.90;;;;;;4897617;29;20282;-68
2022/04/02 04:32:02;;;;;;;2.05;1.95;;;2.20;99.90;;;;;;4893410;29;20224;-68
2022/04/02 04:34:29;;;;;;;2.22;2.13;;;2.20;99.90;;;;;;4896566;29;20401;-68
2022/04/02 04:36:56;;;;;;;2.45;2.25;;;2.20;99.90;;;;;;4894578;29;20274;-68
2022/04/02 04:39:23;;;;;;;1.85;1.73;;;2.20;99.90;;;;;;4895885;29;20676;-68
2022/04/02 04:41:50;;;;;;;2.15;2.00;;;2.20;99.90;;;;;;4894754;29;20231;-69
2022/04/02 04:44:16;;;;;;;1.98;1.92;;;2.20;99.90;;;;;;4894981;29;20211;-68
2022/04/02 04:46:43;;;;;;;2.60;1.90;;;2.20;99.90;;;;;;4896406;29;20669;-68
2022/04/02 04:49:10;;;;;;;1.88;1.77;;;2.20;99.90;;;;;;4898249;29;20207;-69
2022/04/02 04:51:37;;;;;;;2.05;1.95;;;2.20;99.90;;;;;;4891866;29;20230;-69
2022/04/02 04:54:05;;;;;;;3.03;2.20;;;2.20;99.90;;;;;;4898017;29;20279;-69
2022/04/02 04:56:31;;;;;;;1.95;1.73;;;2.20;99.90;;;;;;4893624;29;20219;-69
2022/04/02 04:58:58;;;;;;;2.00;1.90;;;2.20;99.90;;;;;;4897801;29;20203;-70
2022/04/02 05:01:25;;;;;;;1.70;1.60;;;2.20;99.90;;;;;;4894962;29;20692;-69
2022/04/02 05:03:51;;;;;;;2.50;2.30;;;2.20;99.90;;;;;;4897289;29;20207;-69
2022/04/02 05:06:19;;;;;;;1.75;1.75;;;2.20;99.90;;;;;;4887231;29;20220;-69
2022/04/02 05:08:46;;;;;;;2.10;2.10;;;2.20;99.90;;;;;;4891429;29;20676;-69
2022/04/02 05:11:14;;;;;;;6.88;2.08;;;2.20;99.90;;;;;;4888289;29;20692;-69
2022/04/02 05:13:41;;;;;;;2.80;2.10;;;2.30;99.90;;;;;;4889592;29;20208;-69
2022/04/02 05:16:08;;;;;;;3.05;2.67;;;2.30;99.90;;;;;;4892371;29;20578;-69
2022/04/02 05:18:35;;;;;;;1.92;1.83;;;2.30;99.90;;;;;;4897158;29;20219;-69
2022/04/02 05:21:03;;;;;;;3.13;2.40;;;2.30;99.90;;;;;;4892385;29;20590;-69
2022/04/02 05:23:29;;;;;;;4.03;1.42;;;2.30;99.90;;;;;;4897238;29;20208;-69
2022/04/02 05:25:56;;;;;;;2.40;2.30;;;2.40;99.90;;;;;;4893675;29;20207;-69
2022/04/02 05:28:25;;;;;;;2.05;1.95;;;2.40;99.90;;;;;;4895633;29;20216;-69
2022/04/02 05:30:52;;;;;;;2.60;2.40;;;2.40;99.90;;;;;;4893699;29;20254;-69
2022/04/02 05:33:19;;;;;;;2.63;2.45;;;2.40;99.90;;;;;;4895912;29;20217;-69
2022/04/02 05:35:46;;;;;;;2.10;2.00;;;2.40;99.90;;;;;;4894713;29;20264;-69
2022/04/02 05:38:14;;;;;;;2.35;2.10;;;2.50;99.90;;;;;;4895931;29;20204;-69
2022/04/02 05:40:40;;;;;;;2.83;2.63;;;2.50;99.90;;;;;;4894148;29;20715;-69
2022/04/02 05:43:07;;;;;;;2.45;2.33;;;2.50;99.90;;;;;;4889155;29;20230;-69
2022/04/02 05:45:35;;;;;;;3.05;2.85;;;2.50;99.90;;;;;;4895529;29;20216;-69
2022/04/02 05:48:02;;;;;;;3.53;3.28;;;2.50;99.90;;;;;;4889654;29;20208;-69
2022/04/02 05:50:29;;;;;;;2.97;2.65;;;2.60;99.90;;;;;;4894981;29;20212;-69
2022/04/02 05:52:55;;;;;;;2.40;2.25;;;2.60;99.90;;;;;;4895992;29;20683;-69
2022/04/02 05:55:22;;;;;;;2.70;2.50;;;2.60;99.90;;;;;;4895172;29;20694;-69
2022/04/02 05:57:49;;;;;;;2.28;2.17;;;2.60;99.90;;;;;;4884303;29;20656;-69
2022/04/02 06:00:17;;;;;;;4.70;2.72;;;2.60;99.90;;;;;;4893727;29;20215;-69
2022/04/02 06:02:45;;;;;;;2.63;2.47;;;2.60;99.90;;;;;;4890104;29;20696;-69
2022/04/02 06:05:13;;;;;;;4.97;2.60;;;2.60;99.90;;;;;;4896783;29;20263;-69
2022/04/02 06:07:41;;;;;;;3.13;2.47;;;2.60;99.90;;;;;;4895408;29;20230;-69
2022/04/02 06:10:09;;;;;;;2.33;2.25;;;2.60;99.90;;;;;;4894439;29;20207;-68
2022/04/02 06:12:37;;;;;;;2.35;2.25;;;2.60;99.90;;;;;;4891075;29;20318;-69
2022/04/02 06:15:05;;;;;;;9.00;2.65;;;2.60;99.90;;;;;;4896949;29;20699;-68
2022/04/02 06:17:32;;;;;;;2.55;2.35;;;2.70;99.90;;;;;;4892713;29;20738;-68
2022/04/02 06:20:00;;;;;;;2.65;2.55;;;2.70;99.90;;;;;;4896254;29;20211;-69
2022/04/02 06:22:26;;;;;;;2.90;2.70;;;2.80;99.90;;;;;;4891774;29;20708;-69
2022/04/02 06:24:53;;;;;;;3.22;2.92;;;2.80;99.90;;;;;;4896567;29;20207;-68
2022/04/02 06:27:19;;;;;;;2.47;2.38;;;2.90;99.90;;;;;;4891565;29;20263;-69
2022/04/02 06:29:46;;;;;;;3.80;2.65;;;2.80;99.90;;;;;;4894946;29;20590;-68
2022/04/02 06:32:13;;;;;;;3.20;2.78;;;2.90;99.90;;;;;;4889740;29;20928;-69
2022/04/02 06:34:39;;;;;;;2.60;1.95;;;2.90;99.90;;;;;;4882936;29;20211;-68
2022/04/02 06:37:07;;;;;;;2.83;2.00;;;2.90;99.90;;;;;;4895788;29;20698;-68
2022/04/02 06:39:34;;;;;;;4.40;2.45;;;2.90;99.90;;;;;;4890183;29;20271;-68
2022/04/02 06:42:01;;;;;;;2.88;2.30;;;2.90;99.90;;;;;;4883196;29;20284;-68
2022/04/02 06:44:29;;;;;;;3.92;2.40;;;2.90;99.90;;;;;;4894356;29;20207;-68
2022/04/02 06:46:57;;;;;;;2.13;2.00;;;2.90;99.90;;;;;;4890253;29;20212;-69
2022/04/02 06:49:23;;;;;;;3.25;3.05;;;3.00;99.90;;;;;;4895895;29;20218;-69
2022/04/02 06:51:50;;;;;;;3.22;2.10;;;3.10;99.90;;;;;;4895492;29;20223;-69
2022/04/02 06:54:18;;;;;;;2.30;2.08;;;3.30;99.90;;;;;;4896656;29;20317;-68
2022/04/02 06:56:45;;;;;;;2.50;2.30;;;3.40;99.90;;;;;;4890612;29;20207;-68
2022/04/02 06:59:11;;;;;;;2.00;1.90;;;3.50;99.90;;;;;;4896139;29;20211;-69
2022/04/02 07:01:38;;;;;;;2.60;1.75;;;3.60;99.90;;;;;;4894516;29;20251;-68
2022/04/02 07:04:05;;;;;;;2.05;1.65;;;3.60;99.90;;;;;;4894806;29;20294;-68
2022/04/02 07:06:34;;;;;;;1.33;1.33;;;3.70;99.90;;;;;;4890464;29;20215;-68
2022/04/02 07:09:00;;;;;;;1.67;1.58;;;3.70;99.90;;;;;;4890492;29;20283;-68
2022/04/02 07:11:29;;;;;;;3.40;1.88;;;3.70;99.90;;;;;;4892885;29;20223;-68
2022/04/02 07:13:56;;;;;;;1.95;1.95;;;3.70;99.90;;;;;;4889516;29;20211;-68
2022/04/02 07:16:23;;;;;;;1.00;1.00;;;3.70;99.90;;;;;;4893519;29;20294;-68
2022/04/02 07:18:50;;;;;;;3.15;1.95;;;3.80;99.90;;;;;;4893575;29;20716;-68
2022/04/02 07:21:19;;;;;;;4.63;2.70;;;3.90;99.90;;;;;;4888894;29;20387;-68
2022/04/02 07:23:46;;;;;;;2.08;1.98;;;3.90;99.90;;;;;;4895431;29;20214;-68
2022/04/02 07:26:13;;;;;;;1.17;1.17;;;4.00;99.90;;;;;;4893460;29;20215;-68
2022/04/02 07:28:45;;;;;;;1.48;1.48;;;4.00;99.90;;;;;;4877093;29;20298;-68
2022/04/02 07:31:11;;;;;;;1.92;1.52;;;4.00;99.90;;;;;;4876170;29;20581;-68
2022/04/02 07:33:38;;;;;;;1.52;1.42;;;4.00;99.90;;;;;;4888451;29;20199;-68
2022/04/02 07:36:08;;;;;;;2.40;2.03;;;4.00;99.90;;;;;;4898070;29;20468;-67
2022/04/02 07:38:39;;;;;;;2.95;1.60;;;4.10;99.90;;;;;;4898293;29;20239;-68
2022/04/02 07:41:16;;;;;;;1.48;1.48;;;4.10;99.90;;;;;;4886086;29;20654;-68
2022/04/02 07:43:52;;;;;;;1.50;1.50;;;4.10;99.90;;;;;;4889378;29;20231;-69
2022/04/02 07:46:20;;;;;;;1.40;1.30;;;4.00;99.90;;;;;;4899092;29;20257;-68
2022/04/02 07:48:48;;;;;;;1.20;1.20;;;3.90;99.90;;;;;;4896291;29;20207;-68
2022/04/02 07:51:18;;;;;;;1.58;1.48;;;3.90;99.90;;;;;;4897274;29;20255;-68
2022/04/02 07:53:47;;;;;;;1.63;1.40;;;3.90;99.90;;;;;;4891834;29;20204;-68
2022/04/02 07:56:19;;;;;;;1.25;1.25;;;4.10;99.90;;;;;;4890387;29;20223;-69
2022/04/02 07:58:51;;;;;;;1.75;1.65;;;4.10;99.90;;;;;;4889481;29;20204;-69
2022/04/02 08:01:19;;;;;;;2.47;1.45;;;4.20;99.90;;;;;;4880961;29;20295;-68
2022/04/02 08:03:47;;;;;;;1.75;1.65;;;4.30;99.90;;;;;;4886989;29;20611;-68
2022/04/02 08:06:15;;;;;;;1.23;1.23;;;4.30;99.90;;;;;;4886886;29;20685;-68
2022/04/02 08:08:42;;;;;;;1.45;1.45;;;4.30;99.90;;;;;;4894234;29;20444;-69
2022/04/02 08:11:10;;;;;;;1.67;1.30;;;4.40;99.90;;;;;;4896906;29;20239;-69
2022/04/02 08:13:38;;;;;;;1.63;1.63;;;4.50;99.90;;;;;;4897481;29;20641;-69
2022/04/02 08:16:08;;;;;;;0.98;0.98;;;4.40;99.90;;;;;;4898615;29;20234;-69
2022/04/02 08:18:35;;;;;;;1.05;1.05;;;4.30;99.90;;;;;;4897775;29;20664;-68
2022/04/02 08:21:02;;;;;;;1.58;1.50;;;4.30;99.90;;;;;;4895994;29;20294;-69
2022/04/02 08:23:30;;;;;;;0.80;0.80;;;4.30;99.90;;;;;;4894765;29;20318;-69
2022/04/02 08:26:08;;;;;;;1.88;1.83;;;4.30;99.90;;;;;;4892881;29;20298;-69
2022/04/02 08:28:49;;;;;;;0.75;0.75;;;4.40;99.90;;;;;;4888781;29;20211;-69
2022/04/02 08:31:26;;;;;;;1.05;0.98;;;4.40;99.90;;;;;;4886118;29;20394;-69
2022/04/02 08:34:03;;;;;;;0.82;0.82;;;4.40;99.90;;;;;;4896992;29;20645;-68
2022/04/02 08:36:39;;;;;;;1.58;1.15;;;4.40;99.90;;;;;;4895635;29;20215;-69
2022/04/02 08:39:09;;;;;;;1.00;1.00;;;4.50;99.90;;;;;;4894205;29;20381;-69
2022/04/02 08:42:00;;;;;;;1.63;1.50;;;4.70;99.90;;;;;;4889688;29;20296;-69
2022/04/02 08:44:55;;;;;;;2.72;1.00;;;5.00;99.90;;;;;;4895292;29;20235;-69
2022/04/02 08:48:05;;;;;;;1.17;1.08;;;5.10;99.90;;;;;;4883466;29;20215;-69
2022/04/02 08:50:36;;;;;;;1.02;1.02;;;5.00;99.90;;;;;;4889324;29;20225;-69
2022/04/02 08:53:16;;;;;;;1.10;1.10;;;5.00;99.90;;;;;;4894611;29;20243;-68
2022/04/02 08:55:47;;;;;;;1.20;1.02;;;5.00;99.90;;;;;;4892790;29;20294;-69
2022/04/02 08:58:32;;;;;;;1.15;1.15;;;5.10;99.90;;;;;;4890555;29;20299;-69
2022/04/02 09:01:07;;;;;;;1.48;1.33;;;5.10;99.90;;;;;;4890394;29;20238;-70
2022/04/02 09:04:09;;;;;;;1.40;1.40;;;4.90;99.90;;;;;;4892769;29;20228;-70
2022/04/02 09:07:05;;;;;;;1.20;1.20;;;5.00;99.90;;;;;;4889133;29;20210;-69
2022/04/02 09:09:48;;;;;;;0.80;0.80;;;5.10;99.90;;;;;;4893417;29;20204;-68
2022/04/02 09:12:41;;;;;;;0.95;0.95;;;5.10;99.90;;;;;;4892752;29;20219;-69
2022/04/02 09:15:10;;;;;;;0.88;0.88;;;5.20;99.90;;;;;;4891774;29;20211;-70
2022/04/02 09:17:39;;;;;;;1.00;1.00;;;5.30;99.90;;;;;;4893281;29;20211;-69
2022/04/02 09:20:38;;;;;;;1.15;0.95;;;5.20;99.90;;;;;;4893584;29;20307;-70
2022/04/02 09:23:09;;;;;;;1.10;1.10;;;5.10;99.90;;;;;;4890497;29;20227;-71
2022/04/02 09:26:06;;;;;;;0.80;0.80;;;5.00;99.90;;;;;;4899639;29;20633;-70
2022/04/02 09:28:43;;;;;;;1.30;1.30;;;5.00;99.90;;;;;;4895016;29;20562;-70
2022/04/02 09:31:47;;;;;;;1.17;1.17;;;5.00;99.90;;;;;;4894190;29;20285;-70
2022/04/02 09:34:48;;;;;;;1.70;1.65;;;4.90;99.90;;;;;;4891408;29;20206;-70
2022/04/02 09:37:29;;;;;;;1.08;1.08;;;5.10;99.90;;;;;;4886581;29;20215;-70
2022/04/02 09:40:04;;;;;;;0.90;0.90;;;5.10;99.90;;;;;;4885210;29;20232;-71
2022/04/02 09:42:37;;;;;;;1.15;1.15;;;5.20;99.90;;;;;;4893651;29;20609;-71
2022/04/02 09:45:08;;;;;;;13.30;2.10;;;5.40;99.90;;;;;;4890238;29;20306;-69
2022/04/02 09:48:01;;;;;;;1.75;1.65;;;5.50;99.90;;;;;;4886956;29;20655;-70
2022/04/02 09:50:29;;;;;;;1.20;1.10;;;5.80;99.90;;;;;;4893017;29;20207;-70
2022/04/02 09:52:59;;;;;;;1.20;1.20;;;6.00;99.90;;;;;;4896746;29;20683;-70
2022/04/02 09:55:29;;;;;;;1.40;1.40;;;5.80;99.90;;;;;;4880789;29;20223;-70
2022/04/02 09:58:34;;;;;;;1.50;1.40;;;5.60;99.90;;;;;;4891998;29;20626;-70
2022/04/02 10:01:04;;;;;;;1.00;1.00;;;5.60;99.90;;;;;;4891067;29;20251;-70
2022/04/02 10:03:34;;;;;;;0.98;0.70;;;5.50;99.90;;;;;;4892608;29;20325;-70
2022/04/02 10:06:22;;;;;;;0.82;0.60;;;5.30;99.90;;;;;;4892580;29;20311;-70
2022/04/02 10:09:11;;;;;;;1.00;1.00;;;5.20;99.90;;;;;;4879792;29;20667;-70
2022/04/02 10:11:43;;;;;;;1.23;1.20;;;5.20;99.50;;;;;;4888161;29;20279;-70
2022/04/02 10:14:11;;;;;;;1.33;1.10;;;5.50;99.50;;;;;;4890002;29;20208;-70
2022/04/02 10:16:41;;;;;;;1.00;1.00;;;5.80;98.40;;;;;;4893162;29;20215;-70
2022/04/02 10:19:09;;;;;;;1.00;1.00;;;5.80;97.20;;;;;;4891894;29;20673;-69
2022/04/02 10:21:38;;;;;;;2.38;2.38;;;5.70;95.10;;;;;;4883929;29;20670;-70
2022/04/02 10:24:20;;;;;;;2.67;1.10;;;5.60;95.40;;;;;;4884640;29;20227;-70
2022/04/02 10:26:50;;;;;;;1.00;1.00;;;5.80;95.00;;;;;;4886244;29;20687;-69
2022/04/02 10:29:31;;;;;;;4.32;0.95;;;6.00;91.90;;;;;;4888852;29;20216;-70
2022/04/02 10:32:01;;;;;;;1.05;0.95;;;6.00;89.20;;;;;;4893378;29;20234;-70
2022/04/02 10:34:37;;;;;;;1.17;1.17;;;5.80;89.10;;;;;;4879034;29;20264;-70
2022/04/02 10:37:10;;;;;;;0.70;0.70;;;5.80;90.40;;;;;;4893093;29;20210;-70
2022/04/02 10:39:43;;;;;;;2.70;0.90;;;6.00;90.30;;;;;;4894014;29;20306;-69
2022/04/02 10:42:15;;;;;;;0.52;0.52;;;6.30;90.00;;;;;;4885762;29;20295;-69
2022/04/02 10:44:47;;;;;;;1.50;1.08;;;6.20;84.70;;;;;;4881700;29;20214;-69
2022/04/02 10:47:18;;;;;;;1.85;1.35;;;6.00;83.20;;;;;;4886972;29;20704;-69
2022/04/02 10:49:50;;;;;;;0.80;0.80;;;5.90;85.30;;;;;;4884877;29;20236;-69
2022/04/02 10:52:17;;;;;;;1.00;1.00;;;5.80;84.20;;;;;;4891847;29;20249;-70
2022/04/02 10:54:50;;;;;;;1.40;1.40;;;5.80;84.50;;;;;;4881323;29;20220;-69
2022/04/02 10:57:17;;;;;;;1.60;1.50;;;5.90;83.40;;;;;;4890499;29;20214;-69
2022/04/02 10:59:47;;;;;;;1.02;0.90;;;6.00;82.10;;;;;;4879168;29;20295;-69
2022/04/02 11:02:22;;;;;;;0.60;0.60;;;6.10;81.20;;;;;;4879683;29;20243;-69
2022/04/02 11:05:03;;;;;;;1.40;1.40;;;6.40;82.40;;;;;;4880837;29;20195;-70
2022/04/02 11:07:41;;;;;;;1.00;0.65;;;6.50;85.00;;;;;;4888490;29;20204;-68
2022/04/02 11:10:13;;;;;;;0.88;0.88;;;6.40;86.90;;;;;;4883096;29;20220;-69
2022/04/02 11:12:44;;;;;;;0.77;0.77;;;6.40;88.10;;;;;;4895191;29;20211;-69
2022/04/02 11:15:13;;;;;;;1.20;1.20;;;6.40;89.30;;;;;;4895419;29;20208;-69
2022/04/02 11:17:42;;;;;;;1.25;1.15;;;6.50;80.20;;;;;;4894799;29;20696;-69
2022/04/02 11:20:13;;;;;;;0.90;0.90;;;6.70;79.70;;;;;;4892841;29;20240;-69
2022/04/02 11:23:13;;;;;;;0.93;0.93;;;7.10;80.50;;;;;;4887852;29;20440;-69
2022/04/02 11:25:46;;;;;;;1.20;1.20;;;7.20;86.10;;;;;;4895415;29;20882;-69
2022/04/02 11:28:14;;;;;;;2.67;2.58;;;6.90;87.70;;;;;;4894706;29;20645;-70
2022/04/02 11:30:43;;;;;;;0.90;0.90;;;6.80;88.10;;;;;;4894462;29;20235;-69
2022/04/02 11:33:13;;;;;;;1.40;1.30;;;6.70;85.70;;;;;;4894792;29;20207;-69
2022/04/02 11:35:41;;;;;;;1.25;1.25;;;6.50;86.80;;;;;;4895390;29;20252;-69
2022/04/02 11:38:17;;;;;;;1.30;1.30;;;6.50;85.70;;;;;;4895165;29;20249;-69
2022/04/02 11:40:52;;;;;;;0.90;0.90;;;6.40;86.70;;;;;;4894693;29;20235;-69
2022/04/02 11:43:19;;;;;;;1.23;1.13;;;6.50;88.20;;;;;;4894674;29;20230;-69
2022/04/02 11:45:47;;;;;;;1.17;1.17;;;6.50;88.20;;;;;;4895424;29;20271;-69
2022/04/02 11:48:18;;;;;;;1.65;1.55;;;6.40;83.70;;;;;;4894896;29;20263;-69
2022/04/02 11:50:46;;;;;;;1.05;1.05;;;6.30;83.50;;;;;;4894461;29;20231;-69
2022/04/02 11:53:14;;;;;;;1.33;1.33;;;6.40;80.40;;;;;;4895143;29;20309;-69
2022/04/02 11:55:41;;;;;;;1.00;1.00;;;6.40;80.40;;;;;;4895333;29;20683;-70
2022/04/02 11:58:11;;;;;;;1.55;1.23;;;6.60;80.60;;;;;;4891705;29;20259;-71
2022/04/02 12:00:40;;;;;;;1.90;1.90;;;6.80;79.40;;;;;;4892154;29;20311;-70
2022/04/02 12:03:21;;;;;;;1.42;1.42;;;6.80;80.30;;;;;;4893600;29;20239;-70
2022/04/02 12:05:49;;;;;;;1.15;1.15;;;6.90;84.60;;;;;;4893805;29;20211;-70
2022/04/02 12:08:27;;;;;;;1.20;1.20;;;6.90;82.40;;;;;;4891431;29;20743;-70
2022/04/02 12:10:55;;;;;;;1.35;1.25;;;6.60;79.20;;;;;;4888273;29;20334;-69
2022/04/02 12:13:23;;;;;;;0.85;0.85;;;6.40;79.80;;;;;;4885153;29;20212;-69
2022/04/02 12:16:01;;;;;;;0.95;0.95;;;6.20;79.20;;;;;;4888448;29;20603;-69
2022/04/02 12:18:29;;;;;;;0.70;0.70;;;6.30;79.60;;;;;;4894223;29;20221;-70
2022/04/02 12:21:03;;;;;;;1.20;1.20;;;6.50;80.40;;;;;;4894161;29;20239;-70
2022/04/02 12:23:30;;;;;;;2.20;1.55;;;6.70;81.80;;;;;;4898719;29;20326;-69
2022/04/02 12:26:00;;;;;;;1.05;1.05;;;6.80;81.60;;;;;;4898687;29;20244;-69
2022/04/02 12:28:28;;;;;;;0.70;0.70;;;6.60;78.90;;;;;;4898075;29;20665;-69
2022/04/02 12:31:04;;;;;;;0.80;0.77;;;6.30;78.90;;;;;;4897848;29;20234;-69
2022/04/02 12:33:31;;;;;;;0.80;0.80;;;6.30;77.70;;;;;;4899086;29;20297;-69
2022/04/02 12:35:59;;;;;;;1.38;1.38;;;6.30;75.40;;;;;;4899870;29;20211;-70
2022/04/02 12:38:28;;;;;;;0.70;0.70;;;6.40;74.40;;;;;;4902297;29;20271;-70
2022/04/02 12:40:57;;;;;;;0.85;0.85;;;6.40;76.30;;;;;;4899949;29;20227;-69
2022/04/02 12:43:30;;;;;;;5.18;1.35;;;6.40;76.40;;;;;;4898823;29;20262;-69
2022/04/02 12:45:59;;;;;;;0.90;0.90;;;6.60;78.10;;;;;;4897870;29;20211;-69
2022/04/02 12:48:26;;;;;;;1.10;0.90;;;6.70;78.40;;;;;;4897800;29;20263;-70
2022/04/02 12:50:57;;;;;;;0.60;0.60;;;6.80;76.50;;;;;;4897260;29;20234;-69
2022/04/02 12:53:29;;;;;;;1.15;1.15;;;6.60;73.50;;;;;;4897485;29;20212;-68
2022/04/02 12:55:57;;;;;;;1.15;1.15;;;6.40;74.00;;;;;;4897798;29;20210;-69
2022/04/02 12:58:32;;;;;;;1.33;0.90;;;6.40;76.10;;;;;;4897075;29;20214;-68
2022/04/02 13:01:10;;;;;;;0.70;0.70;;;6.40;76.00;;;;;;4896997;29;20291;-68
2022/04/02 13:03:45;;;;;;;0.85;0.85;;;6.40;73.80;;;;;;4896600;29;20238;-69
2022/04/02 13:06:19;;;;;;;0.85;0.85;;;6.40;72.90;;;;;;4897752;29;20278;-69
2022/04/02 13:08:56;;;;;;;1.30;1.20;;;6.50;73.30;;;;;;4897074;29;20294;-69
2022/04/02 13:11:46;;;;;;;1.08;1.08;;;6.70;72.40;;;;;;4896650;29;20724;-69
2022/04/02 13:14:16;;;;;;;1.33;1.20;;;6.80;72.80;;;;;;4897233;29;20215;-70
2022/04/02 13:16:44;;;;;;;0.68;0.68;;;6.70;71.60;;;;;;4898132;29;20211;-70
2022/04/02 13:22:05;;;;;;;0.82;0.82;;;6.90;72.80;;;;;;4892897;29;20314;-69
2022/04/02 13:24:52;;;;;;;0.98;0.98;;;6.90;70.40;;;;;;4897122;29;20717;-69
2022/04/02 13:27:59;;;;;;;1.05;0.93;;;6.80;69.60;;;;;;4896848;29;20211;-69
2022/04/02 13:30:33;;;;;;;0.90;0.90;;;6.70;68.70;;;;;;4896867;29;20211;-69
2022/04/02 13:33:30;;;;;;;0.80;0.80;;;6.50;62.40;;;;;;4896248;29;20207;-69
2022/04/02 13:36:04;;;;;;;0.75;0.75;;;6.40;61.90;;;;;;4897085;29;20203;-69
2022/04/02 13:38:56;;;;;;;1.05;0.60;;;6.50;64.40;;;;;;4897029;29;20215;-69
2022/04/02 13:41:27;;;;;;;0.55;0.55;;;6.60;67.30;;;;;;4896290;29;20238;-68
2022/04/02 13:43:55;;;;;;;0.60;0.60;;;6.40;68.20;;;;;;4896753;29;20313;-68
2022/04/02 13:46:28;;;;;;;0.68;0.68;;;6.40;69.20;;;;;;4897315;29;20215;-69
2022/04/02 13:49:03;;;;;;;1.08;0.80;;;6.60;68.20;;;;;;4896641;29;20215;-68
2022/04/02 13:51:48;;;;;;;0.57;0.57;;;6.60;65.10;;;;;;4896598;29;20285;-68
2022/04/02 13:54:23;;;;;;;0.57;0.57;;;6.50;65.00;;;;;;4897265;29;20250;-68
2022/04/02 13:56:56;;;;;;;0.80;0.80;;;6.50;64.40;;;;;;4898142;29;20238;-70
2022/04/02 13:59:30;;;;;;;1.00;1.00;;;6.50;63.80;;;;;;4896801;29;20215;-70
2022/04/02 14:01:59;;;;;;;1.65;0.70;;;6.50;63.30;;;;;;4896517;29;20257;-69
2022/04/02 14:04:35;;;;;;;1.00;1.00;;;6.60;65.40;;;;;;4895942;29;20689;-69
2022/04/02 14:07:04;;;;;;;0.80;0.80;;;6.60;65.70;;;;;;4896274;29;20226;-69
2022/04/02 14:09:32;;;;;;;1.65;0.90;;;6.60;64.30;;;;;;4895780;29;20266;-69
2022/04/02 14:12:04;;;;;;;1.10;1.10;;;6.70;63.90;;;;;;4894956;29;20307;-69
2022/04/02 14:14:36;;;;;;;0.70;0.70;;;6.80;65.30;;;;;;4892967;29;20215;-69
2022/04/02 14:17:07;;;;;;;0.60;0.60;;;6.80;64.30;;;;;;4889104;29;20207;-69
2022/04/02 14:19:43;;;;;;;0.90;0.90;;;6.70;62.20;;;;;;4888479;29;20216;-69
2022/04/02 14:22:12;;;;;;;1.70;1.70;;;6.60;61.70;;;;;;4882685;29;20310;-69
2022/04/02 14:24:49;;;;;;;1.00;1.00;;;6.50;62.50;;;;;;4892298;29;20230;-69
2022/04/02 14:27:29;;;;;;;0.73;0.73;;;6.50;61.40;;;;;;4893650;29;20274;-69
2022/04/02 14:30:06;;;;;;;0.95;0.75;;;6.50;61.00;;;;;;4895309;29;20206;-69
2022/04/02 14:35:47;;;;;;;0.95;0.95;;;6.40;61.50;;;;;;5086988;27;20544;-70
2022/04/02 14:38:57;;;;;;;0.70;0.70;;;6.50;64.50;;;;;;5091924;28;20273;-70
2022/04/02 14:41:30;;;;;;;0.50;0.50;;;6.40;62.00;;;;;;5076676;28;20260;-69
2022/04/02 14:44:34;;;;;;;1.00;1.00;;;6.50;61.70;;;;;;5066849;28;20209;-69
2022/04/02 14:47:42;;;;;;;0.60;0.60;;;6.50;59.40;;;;;;5066056;28;20275;-69
2022/04/02 14:50:38;;;;;;;0.70;0.70;;;6.40;57.10;;;;;;5058920;28;20812;-68
2022/04/02 14:53:42;;;;;;;0.70;0.70;;;6.30;57.00;;;;;;5057853;28;20270;-69
2022/04/02 14:56:35;;;;;;;0.45;0.45;;;6.30;57.80;;;;;;5055717;28;20253;-71
2022/04/02 14:59:41;;;;;;;0.82;0.82;;;6.40;58.70;;;;;;5061788;28;20209;-71
2022/04/02 15:02:30;;;;;;;0.80;0.80;;;6.40;57.80;;;;;;5060988;28;20232;-70
2022/04/02 15:05:33;;;;;;;0.70;0.70;;;6.40;56.90;;;;;;5058366;28;20299;-70
2022/04/02 15:08:48;;;;;;;0.75;0.75;;;6.40;55.50;;;;;;5066227;28;20258;-69
2022/04/02 15:11:17;;;;;;;0.85;0.85;;;6.30;55.90;;;;;;5065750;28;20265;-70
2022/04/02 15:13:52;;;;;;;0.85;0.85;;;6.20;56.30;;;;;;5066350;28;20225;-70
2022/04/02 15:16:28;;;;;;;0.32;0.32;;;6.10;56.10;;;;;;5067072;28;20292;-70
2022/04/02 15:19:13;;;;;;;1.00;0.47;;;6.10;55.50;;;;;;5066341;28;20288;-69
2022/04/02 15:21:40;;;;;;;0.73;0.73;;;6.00;55.70;;;;;;5063272;28;20306;-69
2022/04/02 15:24:16;;;;;;;0.40;0.40;;;6.00;56.00;;;;;;5066229;28;20209;-70
2022/04/02 15:26:52;;;;;;;0.75;0.75;;;6.10;56.50;;;;;;5058346;28;20209;-70
2022/04/02 15:29:24;;;;;;;0.90;0.90;;;6.00;56.70;;;;;;5046771;28;20267;-70
2022/04/02 15:32:00;;;;;;;0.65;0.65;;;6.00;56.70;;;;;;5047635;28;20226;-69
2022/04/02 15:34:28;;;;;;;0.70;0.70;;;6.00;56.40;;;;;;5046029;28;20241;-69
2022/04/02 15:36:59;;;;;;;0.70;0.50;;;6.10;57.60;;;;;;5046780;28;20279;-69
2022/04/02 15:39:33;;;;;;;1.20;1.20;;;6.00;57.90;;;;;;5069829;28;20665;-69
2022/04/02 15:42:00;;;;;;;1.33;1.33;;;6.10;57.90;;;;;;5076201;28;20222;-70
2022/04/02 15:44:29;;;;;;;1.13;1.13;;;6.00;56.60;;;;;;5075006;28;20201;-69
2022/04/02 15:46:56;;;;;;;1.00;1.00;;;6.00;57.80;;;;;;5052082;28;20228;-69
2022/04/02 15:49:37;;;;;;;1.00;1.00;;;5.90;58.10;;;;;;5052303;28;20218;-70
2022/04/02 15:52:21;;;;;;;0.88;0.88;;;5.80;59.60;;;;;;5052822;28;20225;-69
2022/04/02 15:54:59;;;;;;;1.10;0.65;;;5.90;59.90;;;;;;5032747;28;20280;-69
2022/04/02 15:57:26;;;;;;;0.80;0.80;;;5.90;58.70;;;;;;5036240;28;20330;-69
2022/04/02 16:00:22;;;;;;;0.77;0.77;;;5.80;57.40;;;;;;5052264;28;20214;-69
2022/04/02 16:02:50;;;;;;;1.00;1.00;;;5.80;57.10;;;;;;5051638;28;20224;-69
2022/04/02 16:05:20;;;;;;;1.15;1.05;;;5.80;56.80;;;;;;5050540;28;20211;-69
2022/04/02 16:08:06;;;;;;;0.93;0.93;;;5.80;57.00;;;;;;5051138;28;20199;-72
2022/04/02 16:10:34;;;;;;;0.88;0.82;;;5.70;56.70;;;;;;5044993;28;20236;-70
2022/04/02 16:13:21;;;;;;;0.65;0.65;;;5.70;56.60;;;;;;5046388;28;20209;-69
2022/04/02 16:16:02;;;;;;;0.60;0.60;;;5.70;57.40;;;;;;5052793;28;20628;-68
2022/04/02 16:18:28;;;;;;;0.75;0.75;;;5.70;58.20;;;;;;5051074;28;20210;-68
2022/04/02 16:21:07;;;;;;;1.10;1.00;;;5.60;59.10;;;;;;5051885;28;20273;-69
2022/04/02 16:23:36;;;;;;;1.00;1.00;;;5.60;59.40;;;;;;5050935;28;20213;-69
2022/04/02 16:26:06;;;;;;;1.10;1.10;;;5.60;59.50;;;;;;5049829;28;20228;-69
2022/04/02 16:28:35;;;;;;;1.80;1.80;;;5.60;58.00;;;;;;5051278;28;20202;-69
2022/04/02 16:31:04;;;;;;;2.13;2.03;;;5.50;57.80;;;;;;5049822;28;20567;-69
2022/04/02 16:33:32;;;;;;;1.45;1.35;;;5.50;58.80;;;;;;5053227;28;20728;-69
2022/04/02 16:36:01;;;;;;;1.10;1.10;;;5.40;58.70;;;;;;5054649;28;20287;-69
2022/04/02 16:38:28;;;;;;;1.17;1.17;;;5.40;59.30;;;;;;5050573;28;20275;-69
2022/04/02 16:40:57;;;;;;;0.88;0.88;;;5.40;59.10;;;;;;5057850;28;20217;-69
2022/04/02 16:43:25;;;;;;;2.05;1.67;;;5.30;57.40;;;;;;5046546;28;20212;-69
2022/04/02 16:46:07;;;;;;;1.00;0.70;;;5.30;57.20;;;;;;5049564;28;20229;-69
2022/04/02 16:48:34;;;;;;;1.23;1.23;;;5.30;57.40;;;;;;5047404;28;20233;-69
2022/04/02 16:51:05;;;;;;;0.75;0.75;;;5.30;57.70;;;;;;5050985;28;20233;-69
2022/04/02 16:53:32;;;;;;;0.80;0.73;;;5.20;57.90;;;;;;5050002;28;20201;-69
2022/04/02 16:55:59;;;;;;;0.57;0.52;;;5.20;58.70;;;;;;5051286;28;20252;-69
2022/04/02 16:58:27;;;;;;;0.70;0.70;;;5.10;59.30;;;;;;5047669;28;20238;-69
2022/04/02 17:00:55;;;;;;;1.60;0.50;;;5.10;59.50;;;;;;5043841;28;20275;-69
2022/04/02 17:03:22;;;;;;;0.90;0.90;;;5.10;59.60;;;;;;5048955;28;20249;-70
2022/04/02 17:05:49;;;;;;;0.40;0.40;;;5.10;60.40;;;;;;5050507;28;20202;-70
2022/04/02 17:08:17;;;;;;;0.60;0.60;;;5.00;61.10;;;;;;5050477;28;20261;-70
2022/04/02 17:10:48;;;;;;;0.77;0.77;;;5.00;61.40;;;;;;5051084;28;20305;-71
2022/04/02 17:13:19;;;;;;;0.88;0.88;;;4.90;61.10;;;;;;5049459;28;20202;-68
2022/04/02 17:15:57;;;;;;;0.82;0.82;;;4.90;60.60;;;;;;5051084;28;20746;-70
2022/04/02 17:18:30;;;;;;;0.60;0.60;;;4.80;60.30;;;;;;5049601;28;20248;-70
2022/04/02 17:21:08;;;;;;;0.40;0.40;;;4.80;61.50;;;;;;5050315;28;20310;-70
2022/04/02 17:23:37;;;;;;;0.70;0.70;;;4.70;61.20;;;;;;5050301;28;20220;-70
2022/04/02 17:26:07;;;;;;;3.78;2.95;;;4.70;61.90;;;;;;5050719;28;20194;-70
2022/04/02 17:28:42;;;;;;;5.50;5.18;;;4.60;62.70;;;;;;5034194;28;20213;-70
2022/04/02 17:31:11;;;;;;;1.27;1.20;;;4.60;62.40;;;;;;5046807;28;20321;-70
2022/04/02 17:33:38;;;;;;;1.48;1.40;;;4.50;63.10;;;;;;5049687;28;20301;-69
2022/04/02 17:36:05;;;;;;;3.35;2.80;;;4.50;63.70;;;;;;5048921;28;20651;-69